Time;durP1;ratioP1;P1;durP2;ratioP2;P2;SDS_P1;SDS_P2;PMS_P1;PMS_P2;Temp;Humidity;BMP_temperature;BMP_pressure;BME280_temperature;BME280_humidity;BME280_pressure;Samples;Min_cycle;Max_cycle;Signal;HPM_P1;HPM_P2
2024/04/13 00:00:29;;;;;;;;;;;15.90;99.90;;;;;;5408320;26;19936;-80
2024/04/13 00:02:54;;;;;;;;;;;15.80;99.90;;;;;;5385097;26;19972;-78
2024/04/13 00:05:20;;;;;;;;;;;15.80;1.00;;;;;;5383009;26;19930;-80
2024/04/13 00:07:45;;;;;;;;;;;15.80;1.00;;;;;;5384111;26;19962;-80
2024/04/13 00:10:11;;;;;;;;;;;15.80;1.00;;;;;;5384410;26;19950;-79
2024/04/13 00:12:36;;;;;;;;;;;15.80;1.00;;;;;;5390165;26;20383;-80
2024/04/13 00:15:02;;;;;;;;;;;15.70;1.00;;;;;;5387207;26;20206;-81
2024/04/13 00:17:27;;;;;;;;;;;15.70;1.00;;;;;;5415328;26;19936;-80
2024/04/13 00:19:53;;;;;;;;;;;15.70;1.00;;;;;;5383338;26;19936;-81
2024/04/13 00:22:19;;;;;;;;;;;15.70;1.00;;;;;;5410571;26;20288;-81
2024/04/13 00:24:45;;;;;;;;;;;15.70;1.00;;;;;;5406390;26;19932;-81
2024/04/13 00:27:10;;;;;;;;;;;15.70;1.00;;;;;;5408762;26;20252;-78
2024/04/13 00:29:37;;;;;;;;;;;15.70;1.00;;;;;;5390759;26;19941;-80
2024/04/13 00:32:05;;;;;;;;;;;15.70;1.00;;;;;;5422420;26;19945;-80
2024/04/13 00:34:34;;;;;;;;;;;15.60;1.00;;;;;;5407831;26;19930;-80
2024/04/13 00:36:59;;;;;;;;;;;15.60;1.00;;;;;;5386358;26;19936;-82
2024/04/13 00:39:25;;;;;;;;;;;15.60;1.00;;;;;;5395440;26;19929;-81
2024/04/13 00:41:53;;;;;;;;;;;15.60;1.00;;;;;;5423818;26;19941;-81
2024/04/13 00:44:18;;;;;;;;;;;15.60;1.00;;;;;;5422845;26;19936;-81
2024/04/13 00:46:44;;;;;;;;;;;15.50;1.00;;;;;;5390303;26;19929;-81
2024/04/13 00:49:15;;;;;;;;;;;15.50;1.00;;;;;;5407012;26;19935;-82
2024/04/13 00:51:44;;;;;;;;;;;15.50;1.00;;;;;;5417764;26;19998;-81
2024/04/13 00:54:13;;;;;;;;;;;15.50;1.00;;;;;;5402508;26;19961;-80
2024/04/13 00:56:40;;;;;;;;;;;15.50;1.00;;;;;;5387602;26;19929;-80
2024/04/13 00:59:06;;;;;;;;;;;15.50;1.00;;;;;;5403616;26;19929;-80
2024/04/13 01:01:31;;;;;;;;;;;15.50;1.00;;;;;;5389404;26;19975;-81
2024/04/13 01:03:58;;;;;;;;;;;15.50;1.00;;;;;;5403158;26;19930;-78
2024/04/13 01:06:23;;;;;;;;;;;15.50;1.00;;;;;;5384320;26;19930;-81
2024/04/13 01:08:50;;;;;;;;;;;15.50;1.00;;;;;;5387504;26;19929;-81
2024/04/13 01:11:16;;;;;;;;;;;15.50;1.00;;;;;;5407440;26;19929;-81
2024/04/13 01:13:41;;;;;;;;;;;15.50;1.00;;;;;;5392667;26;20264;-79
2024/04/13 01:16:07;;;;;;;;;;;15.50;1.00;;;;;;5377122;26;20417;-80
2024/04/13 01:18:32;;;;;;;;;;;15.50;1.00;;;;;;5394378;26;19937;-79
2024/04/13 01:20:58;;;;;;;;;;;15.50;1.00;;;;;;5383668;26;19930;-81
2024/04/13 01:23:25;;;;;;;;;;;15.50;1.00;;;;;;5383587;26;19930;-81
2024/04/13 01:25:50;;;;;;;;;;;15.50;1.00;;;;;;5383445;26;19937;-81
2024/04/13 01:28:17;;;;;;;;;;;15.40;1.00;;;;;;5393277;26;19941;-81
2024/04/13 01:30:42;;;;;;;;;;;15.40;1.00;;;;;;5412994;26;20330;-80
2024/04/13 01:33:09;;;;;;;;;;;15.40;1.00;;;;;;5417624;26;20301;-81
2024/04/13 01:35:34;;;;;;;;;;;15.40;1.00;;;;;;5384953;26;20375;-80
2024/04/13 01:38:00;;;;;;;;;;;15.40;1.00;;;;;;5393263;26;20252;-81
2024/04/13 01:40:25;;;;;;;;;;;15.40;1.00;;;;;;5409242;26;20368;-81
2024/04/13 01:42:51;;;;;;;;;;;15.40;1.00;;;;;;5392694;26;19935;-81
2024/04/13 01:45:16;;;;;;;;;;;15.40;1.00;;;;;;5389551;26;19976;-81
2024/04/13 01:47:42;;;;;;;;;;;15.40;1.00;;;;;;5390576;26;19941;-82
2024/04/13 01:50:07;;;;;;;;;;;15.40;1.00;;;;;;5408552;26;19974;-81
2024/04/13 01:52:33;;;;;;;;;;;15.40;1.00;;;;;;5421339;26;19992;-81
2024/04/13 01:54:59;;;;;;;;;;;15.40;1.00;;;;;;5388075;26;19998;-82
2024/04/13 01:57:24;;;;;;;;;;;15.40;1.00;;;;;;5386290;26;19936;-80
2024/04/13 01:59:50;;;;;;;;;;;15.30;1.00;;;;;;5400396;26;19933;-78
2024/04/13 02:02:15;;;;;;;;;;;15.40;1.00;;;;;;5398297;26;19941;-81
2024/04/13 02:04:41;;;;;;;;;;;15.40;1.00;;;;;;5383101;26;19994;-81
2024/04/13 02:07:06;;;;;;;;;;;15.30;1.00;;;;;;5383512;26;20263;-81
2024/04/13 02:09:33;;;;;;;;;;;15.30;1.00;;;;;;5384824;26;19936;-81
2024/04/13 02:11:58;;;;;;;;;;;15.30;1.00;;;;;;5382583;26;19934;-80
2024/04/13 02:14:24;;;;;;;;;;;15.30;1.00;;;;;;5395583;26;19955;-81
2024/04/13 02:16:50;;;;;;;;;;;15.30;1.00;;;;;;5419478;26;19948;-81
2024/04/13 02:19:15;;;;;;;;;;;15.30;1.00;;;;;;5409041;26;19940;-81
2024/04/13 02:21:41;;;;;;;;;;;15.30;1.00;;;;;;5423192;26;19937;-81
2024/04/13 02:24:07;;;;;;;;;;;15.30;1.00;;;;;;5423746;26;19950;-81
2024/04/13 02:26:32;;;;;;;;;;;15.30;1.00;;;;;;5393754;26;19936;-81
2024/04/13 02:28:58;;;;;;;;;;;15.30;1.00;;;;;;5411972;26;20340;-80
2024/04/13 02:31:24;;;;;;;;;;;15.30;1.00;;;;;;5418180;26;19929;-80
2024/04/13 02:33:49;;;;;;;;;;;15.30;1.00;;;;;;5415755;26;20008;-79
2024/04/13 02:36:15;;;;;;;;;;;15.30;1.00;;;;;;5412152;26;20266;-80
2024/04/13 02:38:42;;;;;;;;;;;15.30;1.00;;;;;;5391290;26;20355;-78
2024/04/13 02:41:07;;;;;;;;;;;15.30;1.00;;;;;;5413532;26;19955;-80
2024/04/13 02:43:35;;;;;;;;;;;15.30;1.00;;;;;;5382716;26;19934;-79
2024/04/13 02:46:08;;;;;;;;;;;15.30;1.00;;;;;;5385348;26;20379;-80
2024/04/13 02:48:37;;;;;;;;;;;15.20;1.00;;;;;;5384614;26;19934;-80
2024/04/13 02:51:02;;;;;;;;;;;15.20;1.00;;;;;;5385219;26;19946;-81
2024/04/13 02:53:28;;;;;;;;;;;15.20;1.00;;;;;;5409014;26;19985;-80
2024/04/13 02:55:53;;;;;;;;;;;15.20;1.00;;;;;;5423652;26;19936;-80
2024/04/13 02:58:19;;;;;;;;;;;15.10;1.00;;;;;;5422678;26;19939;-80
2024/04/13 03:00:53;;;;;;;;;;;15.10;1.00;;;;;;5387005;26;20010;-79
2024/04/13 03:03:18;;;;;;;;;;;15.10;1.00;;;;;;5422734;26;19935;-81
2024/04/13 03:05:44;;;;;;;;;;;15.00;1.00;;;;;;5422771;26;19928;-80
2024/04/13 03:08:09;;;;;;;;;;;15.00;1.00;;;;;;5423770;26;19936;-81
2024/04/13 03:10:35;;;;;;;;;;;15.00;1.00;;;;;;5424228;26;19929;-80
2024/04/13 03:13:00;;;;;;;;;;;15.00;1.00;;;;;;5409036;26;20271;-81
2024/04/13 03:15:26;;;;;;;;;;;15.00;1.00;;;;;;5388695;26;19929;-81
2024/04/13 03:17:51;;;;;;;;;;;15.00;1.00;;;;;;5394556;26;19962;-80
2024/04/13 03:20:16;;;;;;;;;;;14.90;1.00;;;;;;5386538;26;20028;-81
2024/04/13 03:22:42;;;;;;;;;;;14.90;1.00;;;;;;5386131;26;20375;-80
2024/04/13 03:25:07;;;;;;;;;;;14.90;1.00;;;;;;5387890;26;19983;-81
2024/04/13 03:27:33;;;;;;;;;;;14.90;1.00;;;;;;5387970;26;19999;-79
2024/04/13 03:29:58;;;;;;;;;;;14.90;1.00;;;;;;5389717;26;19928;-78
2024/04/13 03:32:24;;;;;;;;;;;14.90;1.00;;;;;;5381060;26;19936;-81
2024/04/13 03:34:49;;;;;;;;;;;14.80;1.00;;;;;;5385214;26;19945;-81
2024/04/13 03:37:15;;;;;;;;;;;14.80;1.00;;;;;;5384965;26;20375;-79
2024/04/13 03:39:40;;;;;;;;;;;14.80;1.00;;;;;;5379223;26;19929;-80
2024/04/13 03:42:06;;;;;;;;;;;14.80;1.00;;;;;;5399936;26;20360;-81
2024/04/13 03:44:31;;;;;;;;;;;14.70;1.00;;;;;;5390270;26;19929;-80
2024/04/13 03:46:57;;;;;;;;;;;14.70;1.00;;;;;;5390422;26;19929;-80
2024/04/13 03:49:22;;;;;;;;;;;14.70;1.00;;;;;;5419107;26;19936;-81
2024/04/13 03:51:51;;;;;;;;;;;14.70;1.00;;;;;;5392392;26;20005;-80
2024/04/13 03:54:16;;;;;;;;;;;14.70;1.00;;;;;;5385786;26;19935;-81
2024/04/13 03:56:42;;;;;;;;;;;14.60;1.00;;;;;;5422258;26;19933;-81
2024/04/13 03:59:07;;;;;;;;;;;14.60;1.00;;;;;;5385321;26;20283;-81
2024/04/13 04:01:34;;;;;;;;;;;14.60;1.00;;;;;;5405197;26;19979;-81
2024/04/13 04:04:00;;;;;;;;;;;14.60;1.00;;;;;;5410765;26;19964;-80
2024/04/13 04:06:25;;;;;;;;;;;14.60;1.00;;;;;;5384621;26;19929;-81
2024/04/13 04:08:51;;;;;;;;;;;14.50;1.00;;;;;;5385941;26;19933;-80
2024/04/13 04:11:16;;;;;;;;;;;14.50;1.00;;;;;;5387331;26;20346;-80
2024/04/13 04:13:42;;;;;;;;;;;14.50;1.00;;;;;;5386545;26;19934;-81
2024/04/13 04:16:07;;;;;;;;;;;14.50;1.00;;;;;;5389585;26;19929;-81
2024/04/13 04:18:32;;;;;;;;;;;14.40;1.00;;;;;;5411951;26;19929;-82
2024/04/13 04:20:58;;;;;;;;;;;14.40;1.00;;;;;;5418926;26;20002;-82
2024/04/13 04:23:23;;;;;;;;;;;14.40;1.00;;;;;;5422792;26;19936;-80
2024/04/13 04:25:49;;;;;;;;;;;14.40;1.00;;;;;;5397824;26;19937;-82
2024/04/13 04:28:14;;;;;;;;;;;14.40;1.00;;;;;;5399378;26;19936;-81
2024/04/13 04:30:40;;;;;;;;;;;14.40;1.00;;;;;;5424142;26;19979;-81
2024/04/13 04:33:05;;;;;;;;;;;14.40;1.00;;;;;;5395629;26;19929;-82
2024/04/13 04:35:31;;;;;;;;;;;14.40;1.00;;;;;;5387133;26;19936;-82
2024/04/13 04:37:56;;;;;;;;;;;14.40;1.00;;;;;;5390061;26;19930;-82
2024/04/13 04:40:22;;;;;;;;;;;14.30;1.00;;;;;;5388321;26;20287;-81
2024/04/13 04:42:47;;;;;;;;;;;14.40;1.00;;;;;;5399163;26;19930;-82
2024/04/13 04:45:13;;;;;;;;;;;14.30;1.00;;;;;;5387310;26;19930;-80
2024/04/13 04:47:38;;;;;;;;;;;14.40;1.00;;;;;;5385841;26;20363;-80
2024/04/13 04:50:04;;;;;;;;;;;14.40;1.00;;;;;;5409321;26;19940;-80
2024/04/13 04:52:30;;;;;;;;;;;14.40;1.00;;;;;;5398917;26;19930;-81
2024/04/13 04:54:59;;;;;;;;;;;14.40;1.00;;;;;;5382684;26;20274;-80
2024/04/13 04:57:25;;;;;;;;;;;14.40;1.00;;;;;;5399454;26;19929;-81
2024/04/13 04:59:50;;;;;;;;;;;14.50;1.00;;;;;;5407548;26;19976;-78
2024/04/13 05:02:15;;;;;;;;;;;14.50;1.00;;;;;;5409319;26;20351;-81
2024/04/13 05:04:41;;;;;;;;;;;14.50;1.00;;;;;;5409633;26;19929;-81
2024/04/13 05:07:07;;;;;;;;;;;14.60;1.00;;;;;;5386208;26;19930;-81
2024/04/13 05:09:32;;;;;;;;;;;14.60;1.00;;;;;;5388012;26;19936;-82
2024/04/13 05:11:58;;;;;;;;;;;14.70;1.00;;;;;;5397975;26;19936;-80
2024/04/13 05:14:23;;;;;;;;;;;14.80;1.00;;;;;;5424627;26;19929;-81
2024/04/13 05:16:48;;;;;;;;;;;14.90;1.00;;;;;;5406189;26;19935;-82
2024/04/13 05:19:14;;;;;;;;;;;15.00;1.00;;;;;;5393149;26;19929;-81
2024/04/13 05:21:39;;;;;;;;;;;15.10;1.00;;;;;;5424775;26;19937;-81
2024/04/13 05:24:05;;;;;;;;;;;15.20;1.00;;;;;;5395596;26;19941;-81
2024/04/13 05:26:31;;;;;;;;;;;15.40;1.00;;;;;;5386158;26;19939;-80
2024/04/13 05:28:56;;;;;;;;;;;15.50;1.00;;;;;;5420942;26;19936;-81
2024/04/13 05:31:22;;;;;;;;;;;15.60;1.00;;;;;;5390217;26;19929;-79
2024/04/13 05:33:47;;;;;;;;;;;15.70;1.00;;;;;;5420824;26;19929;-80
2024/04/13 05:36:13;;;;;;;;;;;15.90;1.00;;;;;;5421022;26;20284;-82
2024/04/13 05:38:38;;;;;;;;;;;16.40;99.90;;;;;;5424745;26;19929;-79
2024/04/13 05:41:04;;;;;;;;;;;17.30;99.90;;;;;;5393010;26;20427;-82
2024/04/13 05:43:31;;;;;;;;;;;18.30;1.00;;;;;;5382686;26;19930;-82
2024/04/13 05:45:57;;;;;;;;;;;19.90;99.90;;;;;;5384881;26;19998;-82
2024/04/13 05:48:22;;;;;;;;;;;21.30;1.00;;;;;;5384668;26;19937;-81
2024/04/13 05:50:54;;;;;;;;;;;22.70;99.90;;;;;;5452253;21;19933;-86
2024/04/13 05:53:20;;;;;;;;;;;24.30;1.00;;;;;;5478332;26;19928;-87
2024/04/13 05:55:46;;;;;;;;;;;25.60;1.00;;;;;;5456328;26;19935;-86
2024/04/13 05:58:11;;;;;;;;;;;26.70;1.00;;;;;;5461716;26;19929;-88
2024/04/13 06:00:37;;;;;;;;;;;28.10;99.90;;;;;;5478195;26;19939;-84
2024/04/13 06:03:02;;;;;;;;;;;29.50;99.90;;;;;;5461190;26;19935;-83
2024/04/13 06:05:28;;;;;;;;;;;30.50;99.90;;;;;;5446327;26;20329;-84
2024/04/13 06:07:54;;;;;;;;;;;31.30;99.90;;;;;;5463054;26;19936;-83
2024/04/13 06:10:19;;;;;;;;;;;32.10;99.90;;;;;;5462561;26;19929;-83
2024/04/13 06:12:46;;;;;;;;;;;32.30;99.90;;;;;;5461486;26;19997;-85
2024/04/13 06:15:11;;;;;;;;;;;32.60;99.90;;;;;;5461743;26;19928;-85
2024/04/13 06:17:37;;;;;;;;;;;32.60;99.90;;;;;;5461095;26;19929;-85
2024/04/13 06:20:08;;;;;;;;;;;32.50;99.90;;;;;;5463865;26;20020;-82
2024/04/13 06:22:37;;;;;;;;;;;31.90;99.90;;;;;;5465380;26;20000;-85
2024/04/13 06:25:09;;;;;;;;;;;30.90;99.90;;;;;;5469538;26;19932;-83
2024/04/13 06:27:34;;;;;;;;;;;30.40;99.90;;;;;;5459164;26;19947;-86
2024/04/13 06:30:00;;;;;;;;;;;29.80;99.90;;;;;;5462983;26;19928;-85
2024/04/13 06:32:25;;;;;;;;;;;29.60;99.90;;;;;;5462633;26;20399;-84
2024/04/13 06:34:51;;;;;;;;;;;29.40;99.90;;;;;;5457350;26;19936;-84
2024/04/13 06:37:16;;;;;;;;;;;29.30;99.90;;;;;;5463121;26;19928;-86
2024/04/13 06:39:42;;;;;;;;;;;29.40;99.90;;;;;;5463029;26;19939;-83
2024/04/13 06:42:07;;;;;;;;;;;29.30;99.90;;;;;;5461764;26;19941;-83
2024/04/13 06:44:33;;;;;;;;;;;29.00;99.90;;;;;;5444252;26;19936;-85
2024/04/13 06:46:58;;;;;;;;;;;29.00;99.90;;;;;;5457615;26;20398;-85
2024/04/13 06:49:24;;;;;;;;;;;29.30;99.90;;;;;;5458414;26;19929;-83
2024/04/13 06:51:49;;;;;;;;;;;29.60;99.90;;;;;;5462206;26;19940;-84
2024/04/13 06:54:15;;;;;;;;;;;30.10;99.90;;;;;;5462136;26;19993;-85
2024/04/13 06:56:40;;;;;;;;;;;30.70;99.90;;;;;;5447862;26;19937;-82
2024/04/13 06:59:07;;;;;;;;;;;30.80;99.90;;;;;;5463966;26;19929;-84
2024/04/13 07:01:32;;;;;;;;;;;31.00;99.90;;;;;;5443073;26;19929;-83
2024/04/13 07:03:58;;;;;;;;;;;31.40;99.90;;;;;;5452446;26;20252;-84
2024/04/13 07:06:24;;;;;;;;;;;32.10;99.90;;;;;;5455365;26;19933;-86
2024/04/13 07:08:49;;;;;;;;;;;33.60;99.90;;;;;;5457544;26;19961;-82
2024/04/13 07:11:15;;;;;;;;;;;35.70;99.90;;;;;;5450397;26;19929;-83
2024/04/13 07:13:40;;;;;;;;;;;37.60;99.90;;;;;;5453659;26;19928;-82
2024/04/13 07:16:06;;;;;;;;;;;38.30;99.90;;;;;;5459231;26;19929;-83
2024/04/13 07:18:32;;;;;;;;;;;38.40;99.90;;;;;;5460602;26;19936;-82
2024/04/13 07:20:58;;;;;;;;;;;37.70;99.90;;;;;;5463020;26;19933;-83
2024/04/13 07:23:23;;;;;;;;;;;36.50;99.90;;;;;;5460910;26;19940;-83
2024/04/13 07:25:58;;;;;;;;;;;35.50;99.90;;;;;;5449363;26;19929;-83
2024/04/13 07:28:24;;;;;;;;;;;35.20;99.90;;;;;;5450156;26;20417;-83
2024/04/13 07:30:50;;;;;;;;;;;35.90;99.90;;;;;;5458647;26;19929;-84
2024/04/13 07:33:15;;;;;;;;;;;36.70;99.90;;;;;;5444390;26;19933;-85
2024/04/13 07:35:41;;;;;;;;;;;37.10;99.90;;;;;;5454909;26;19929;-84
2024/04/13 07:38:06;;;;;;;;;;;37.60;99.90;;;;;;5453611;26;19939;-83
2024/04/13 07:40:32;;;;;;;;;;;37.90;99.90;;;;;;5453072;26;19928;-85
2024/04/13 07:42:57;;;;;;;;;;;38.40;99.90;;;;;;5443692;26;19933;-86
2024/04/13 07:45:23;;;;;;;;;;;38.60;99.90;;;;;;5443076;26;20236;-84
2024/04/13 07:47:48;;;;;;;;;;;38.70;99.90;;;;;;5450616;26;19929;-84
2024/04/13 07:50:14;;;;;;;;;;;39.10;99.90;;;;;;5462555;26;19937;-83
2024/04/13 07:52:40;;;;;;;;;;;39.40;99.90;;;;;;5461026;26;19936;-84
2024/04/13 07:55:06;;;;;;;;;;;40.20;99.90;;;;;;5459855;26;19943;-85
2024/04/13 07:57:32;;;;;;;;;;;40.60;99.90;;;;;;5449799;26;19942;-83
2024/04/13 07:59:58;;;;;;;;;;;40.50;99.90;;;;;;5460869;26;19932;-85
2024/04/13 08:02:23;;;;;;;;;;;40.20;99.90;;;;;;5456759;26;19948;-85
2024/04/13 08:04:49;;;;;;;;;;;39.30;99.90;;;;;;5460482;26;19935;-82
2024/04/13 08:07:15;;;;;;;;;;;38.50;99.90;;;;;;5453552;26;19933;-85
2024/04/13 08:09:41;;;;;;;;;;;38.00;99.90;;;;;;5451451;26;19928;-82
2024/04/13 08:12:09;;;;;;;;;;;37.80;99.90;;;;;;5446635;26;19929;-84
2024/04/13 08:14:35;;;;;;;;;;;37.50;99.90;;;;;;5464101;26;19936;-84
2024/04/13 08:17:01;;;;;;;;;;;37.70;99.90;;;;;;5465325;26;20533;-84
2024/04/13 08:19:26;;;;;;;;;;;37.60;99.90;;;;;;5463663;26;19933;-84
2024/04/13 08:21:52;;;;;;;;;;;37.40;99.90;;;;;;5453297;26;19929;-86
2024/04/13 08:24:17;;;;;;;;;;;37.40;99.90;;;;;;5476573;26;19944;-84
2024/04/13 08:26:43;;;;;;;;;;;37.30;99.90;;;;;;5453952;26;19932;-83
2024/04/13 08:29:08;;;;;;;;;;;37.60;99.90;;;;;;5454606;26;19937;-85
2024/04/13 08:31:34;;;;;;;;;;;37.70;99.90;;;;;;5438673;26;20406;-84
2024/04/13 08:33:59;;;;;;;;;;;38.10;99.90;;;;;;5448287;26;19935;-84
2024/04/13 08:36:25;;;;;;;;;;;38.20;99.90;;;;;;5456047;26;20373;-84
2024/04/13 08:38:50;;;;;;;;;;;38.50;99.90;;;;;;5450108;26;19940;-85
2024/04/13 08:41:31;;;;;;;;;;;38.90;99.90;;;;;;5460525;26;19928;-84
2024/04/13 08:43:56;;;;;;;;;;;39.20;99.90;;;;;;5457600;26;19934;-84
2024/04/13 08:46:23;;;;;;;;;;;40.20;99.90;;;;;;5454984;26;19928;-83
2024/04/13 08:48:49;;;;;;;;;;;41.00;99.90;;;;;;5449508;26;19943;-84
2024/04/13 08:51:15;;;;;;;;;;;41.60;99.90;;;;;;5457067;26;20437;-84
2024/04/13 08:53:42;;;;;;;;;;;42.00;99.90;;;;;;5457256;26;19936;-85
2024/04/13 08:56:08;;;;;;;;;;;42.00;99.90;;;;;;5455272;26;19939;-84
2024/04/13 08:58:34;;;;;;;;;;;41.80;99.90;;;;;;5456841;26;19936;-84
2024/04/13 09:01:00;;;;;;;;;;;42.00;99.90;;;;;;5437132;26;19928;-84
2024/04/13 09:03:27;;;;;;;;;;;42.10;99.90;;;;;;5447258;26;19974;-84
2024/04/13 09:05:53;;;;;;;;;;;41.90;99.90;;;;;;5439779;26;20299;-84
2024/04/13 09:08:20;;;;;;;;;;;41.40;99.90;;;;;;5444040;26;19975;-84
2024/04/13 09:10:46;;;;;;;;;;;41.20;99.90;;;;;;5435194;26;19936;-83
2024/04/13 09:13:12;;;;;;;;;;;41.10;99.90;;;;;;5426709;26;20509;-84
2024/04/13 09:15:37;;;;;;;;;;;40.40;99.90;;;;;;5437260;26;20438;-84
2024/04/13 09:18:03;;;;;;;;;;;40.50;99.90;;;;;;5429394;26;19929;-84
2024/04/13 09:20:29;;;;;;;;;;;40.50;99.90;;;;;;5435143;26;20628;-84
2024/04/13 09:22:54;;;;;;;;;;;40.20;99.90;;;;;;5433673;26;19932;-85
2024/04/13 09:25:24;;;;;;;;;;;40.20;99.90;;;;;;5441642;26;19936;-85
2024/04/13 09:28:00;;;;;;;;;;;40.40;99.90;;;;;;5441521;26;19939;-82
2024/04/13 09:30:25;;;;;;;;;;;40.40;99.90;;;;;;5443874;26;19937;-82
2024/04/13 09:32:58;;;;;;;;;;;40.40;99.90;;;;;;5440383;26;19932;-83
2024/04/13 09:35:24;;;;;;;;;;;40.60;99.90;;;;;;5445647;26;19932;-81
2024/04/13 09:37:55;;;;;;;;;;;40.40;99.90;;;;;;5431747;26;19940;-84
2024/04/13 09:40:20;;;;;;;;;;;40.10;99.90;;;;;;5438890;26;19944;-82
2024/04/13 09:42:47;;;;;;;;;;;39.80;99.90;;;;;;5435104;26;20463;-82
2024/04/13 09:45:13;;;;;;;;;;;39.50;99.90;;;;;;5447779;26;20020;-83
2024/04/13 09:47:38;;;;;;;;;;;39.40;99.90;;;;;;5439666;26;19936;-83
2024/04/13 09:50:04;;;;;;;;;;;39.50;99.90;;;;;;5431090;26;19940;-83
2024/04/13 09:52:31;;;;;;;;;;;39.70;99.90;;;;;;5440317;26;20039;-81
2024/04/13 09:54:58;;;;;;;;;;;39.40;99.90;;;;;;5447161;26;19998;-80
2024/04/13 09:57:24;;;;;;;;;;;39.10;99.90;;;;;;5442149;26;20437;-81
2024/04/13 09:59:50;;;;;;;;;;;38.90;99.90;;;;;;5435905;26;19936;-80
2024/04/13 10:02:17;;;;;;;;;;;38.80;99.90;;;;;;5431437;26;20321;-82
2024/04/13 10:04:42;;;;;;;;;;;38.80;99.90;;;;;;5433410;26;19974;-80
2024/04/13 10:07:10;;;;;;;;;;;39.20;99.90;;;;;;5431690;26;19937;-81
2024/04/13 10:09:35;;;;;;;;;;;39.40;99.90;;;;;;5430640;26;19948;-80
2024/04/13 10:12:01;;;;;;;;;;;39.50;99.90;;;;;;5429205;26;19943;-82
2024/04/13 10:14:28;;;;;;;;;;;39.50;99.90;;;;;;5429171;26;19932;-82
2024/04/13 10:16:55;;;;;;;;;;;39.60;99.90;;;;;;5419365;26;19933;-81
2024/04/13 10:19:21;;;;;;;;;;;39.90;99.90;;;;;;5428788;26;19986;-83
2024/04/13 10:21:56;;;;;;;;;;;39.70;99.90;;;;;;5424478;26;19941;-81
2024/04/13 10:24:22;;;;;;;;;;;39.80;99.90;;;;;;5430554;26;19928;-80
2024/04/13 10:26:47;;;;;;;;;;;39.80;99.90;;;;;;5436361;26;19936;-80
2024/04/13 10:29:22;;;;;;;;;;;39.50;99.90;;;;;;5427955;26;19972;-81
2024/04/13 10:31:47;;;;;;;;;;;39.30;99.90;;;;;;5436125;26;19928;-82
2024/04/13 10:34:14;;;;;;;;;;;39.40;99.90;;;;;;5420586;26;19929;-83
2024/04/13 10:36:40;;;;;;;;;;;39.90;99.90;;;;;;5421391;26;19943;-85
2024/04/13 10:39:07;;;;;;;;;;;40.30;99.90;;;;;;5426982;26;20295;-83
2024/04/13 10:41:33;;;;;;;;;;;40.00;99.90;;;;;;5430015;26;19939;-83
2024/04/13 10:43:59;;;;;;;;;;;40.00;99.90;;;;;;5438091;26;19928;-83
2024/04/13 10:46:25;;;;;;;;;;;40.20;99.90;;;;;;5446796;26;19997;-85
2024/04/13 10:48:51;;;;;;;;;;;40.50;99.90;;;;;;5436112;26;19937;-85
2024/04/13 10:51:17;;;;;;;;;;;40.90;99.90;;;;;;5448546;26;19956;-83
2024/04/13 10:53:43;;;;;;;;;;;40.90;99.90;;;;;;5433214;26;19929;-83
2024/04/13 10:56:09;;;;;;;;;;;40.90;99.90;;;;;;5435728;26;19940;-83
2024/04/13 10:58:35;;;;;;;;;;;41.10;99.90;;;;;;5437727;26;19941;-85
2024/04/13 11:01:01;;;;;;;;;;;40.90;99.90;;;;;;5431430;26;19935;-84
2024/04/13 11:03:27;;;;;;;;;;;40.70;99.90;;;;;;5435418;26;20283;-83
2024/04/13 11:05:53;;;;;;;;;;;40.40;99.90;;;;;;5429558;26;19935;-83
2024/04/13 11:08:20;;;;;;;;;;;40.50;99.90;;;;;;5431302;26;19940;-83
2024/04/13 11:10:50;;;;;;;;;;;40.30;99.90;;;;;;5435811;26;19932;-83
2024/04/13 11:13:16;;;;;;;;;;;40.10;99.90;;;;;;5439605;26;19929;-83
2024/04/13 11:15:42;;;;;;;;;;;40.10;99.90;;;;;;5436360;26;19944;-83
2024/04/13 11:18:08;;;;;;;;;;;40.20;99.90;;;;;;5439339;26;20783;-83
2024/04/13 11:20:34;;;;;;;;;;;40.10;99.90;;;;;;5429578;26;19936;-82
2024/04/13 11:23:00;;;;;;;;;;;39.70;99.90;;;;;;5425312;26;19948;-83
2024/04/13 11:25:26;;;;;;;;;;;39.40;99.90;;;;;;5446330;26;19936;-84
2024/04/13 11:28:03;;;;;;;;;;;39.10;99.90;;;;;;5416720;26;19940;-83
2024/04/13 11:30:29;;;;;;;;;;;38.70;99.90;;;;;;5430677;26;20403;-84
2024/04/13 11:33:01;;;;;;;;;;;38.20;99.90;;;;;;5434182;26;19936;-82
2024/04/13 11:35:28;;;;;;;;;;;38.10;99.90;;;;;;5436121;26;20006;-82
2024/04/13 11:37:54;;;;;;;;;;;38.30;99.90;;;;;;5433399;26;19936;-82
2024/04/13 11:40:20;;;;;;;;;;;38.60;99.90;;;;;;5442614;26;19944;-83
2024/04/13 11:42:47;;;;;;;;;;;38.80;99.90;;;;;;5436412;26;19940;-83
2024/04/13 11:45:13;;;;;;;;;;;39.00;99.90;;;;;;5433349;26;19929;-83
2024/04/13 11:47:38;;;;;;;;;;;39.00;99.90;;;;;;5438027;26;19935;-84
2024/04/13 11:50:06;;;;;;;;;;;38.90;99.90;;;;;;5434990;26;19936;-83
2024/04/13 11:52:31;;;;;;;;;;;38.80;99.90;;;;;;5435076;26;19936;-84
2024/04/13 11:54:57;;;;;;;;;;;38.70;99.90;;;;;;5435558;26;20387;-84
2024/04/13 11:57:22;;;;;;;;;;;38.70;99.90;;;;;;5454136;21;19970;-84
2024/04/13 11:59:48;;;;;;;;;;;38.70;99.90;;;;;;5412429;26;20271;-85
2024/04/13 12:02:14;;;;;;;;;;;38.30;99.90;;;;;;5408966;26;20012;-84
2024/04/13 12:04:42;;;;;;;;;;;38.20;99.90;;;;;;5400405;26;19935;-84
2024/04/13 12:07:11;;;;;;;;;;;38.00;99.90;;;;;;5391980;26;19965;-83
2024/04/13 12:09:38;;;;;;;;;;;38.00;99.90;;;;;;5365589;26;19928;-84
2024/04/13 12:12:04;;;;;;;;;;;38.20;99.90;;;;;;5376233;26;19956;-83
2024/04/13 12:14:30;;;;;;;;;;;38.10;99.90;;;;;;5404400;26;19941;-83
2024/04/13 12:16:55;;;;;;;;;;;38.20;99.90;;;;;;5403414;26;22235;-85
2024/04/13 12:19:22;;;;;;;;;;;38.20;99.90;;;;;;5377061;26;19937;-83
2024/04/13 12:21:47;;;;;;;;;;;38.40;99.90;;;;;;5408321;26;19953;-84
2024/04/13 12:24:13;;;;;;;;;;;38.30;99.90;;;;;;5406848;26;19975;-84
2024/04/13 12:26:38;;;;;;;;;;;38.10;99.90;;;;;;5402675;26;19936;-83
2024/04/13 12:29:04;;;;;;;;;;;38.10;99.90;;;;;;5407389;26;19929;-84
2024/04/13 12:31:29;;;;;;;;;;;38.10;99.90;;;;;;5375706;26;19961;-86
2024/04/13 12:33:55;;;;;;;;;;;38.20;99.90;;;;;;5408927;26;19940;-85
2024/04/13 12:36:20;;;;;;;;;;;38.20;99.90;;;;;;5409107;26;19929;-84
2024/04/13 12:38:46;;;;;;;;;;;37.90;99.90;;;;;;5407289;26;19929;-83
2024/04/13 12:41:13;;;;;;;;;;;37.40;99.90;;;;;;5411343;26;19936;-84
2024/04/13 12:43:39;;;;;;;;;;;37.10;99.90;;;;;;5399380;26;19928;-84
2024/04/13 12:46:04;;;;;;;;;;;37.00;99.90;;;;;;5384911;26;19929;-83
2024/04/13 12:48:30;;;;;;;;;;;36.80;99.90;;;;;;5376179;26;19945;-84
2024/04/13 12:50:56;;;;;;;;;;;36.80;99.90;;;;;;5380696;26;19944;-85
2024/04/13 12:53:21;;;;;;;;;;;36.90;99.90;;;;;;5355121;26;19999;-86
2024/04/13 12:55:46;;;;;;;;;;;36.90;99.90;;;;;;5399484;26;19937;-85
2024/04/13 12:58:13;;;;;;;;;;;36.80;99.90;;;;;;5406188;26;19936;-84
2024/04/13 13:00:38;;;;;;;;;;;36.60;99.90;;;;;;5374476;26;19929;-86
2024/04/13 13:03:04;;;;;;;;;;;36.60;99.90;;;;;;5401199;26;19936;-85
2024/04/13 13:05:29;;;;;;;;;;;36.60;99.90;;;;;;5403603;26;19936;-85
2024/04/13 13:07:55;;;;;;;;;;;36.60;99.90;;;;;;5400370;26;20542;-86
2024/04/13 13:10:20;;;;;;;;;;;36.50;99.90;;;;;;5373533;26;19937;-85
2024/04/13 13:12:46;;;;;;;;;;;36.40;99.90;;;;;;5399093;26;19936;-84
2024/04/13 13:15:11;;;;;;;;;;;36.30;99.90;;;;;;5406428;26;19943;-85
2024/04/13 13:17:37;;;;;;;;;;;36.10;99.90;;;;;;5403977;26;19974;-85
2024/04/13 13:20:03;;;;;;;;;;;36.00;99.90;;;;;;5364034;26;19944;-86
2024/04/13 13:22:28;;;;;;;;;;;35.90;99.90;;;;;;5404635;26;19937;-86
2024/04/13 13:24:54;;;;;;;;;;;35.70;99.90;;;;;;5394642;26;19933;-85
2024/04/13 13:27:19;;;;;;;;;;;35.50;99.90;;;;;;5399775;26;19929;-86
2024/04/13 13:29:45;;;;;;;;;;;35.50;99.90;;;;;;5401982;26;19929;-86
2024/04/13 13:32:11;;;;;;;;;;;35.30;99.90;;;;;;5400574;26;24803;-86
2024/04/13 13:34:37;;;;;;;;;;;35.20;99.90;;;;;;5404511;26;19939;-86
2024/04/13 13:37:05;;;;;;;;;;;34.80;99.90;;;;;;5372818;26;19937;-86
2024/04/13 13:39:31;;;;;;;;;;;34.60;99.90;;;;;;5391883;26;19940;-87
2024/04/13 13:41:57;;;;;;;;;;;34.40;99.90;;;;;;5400999;26;19936;-86
2024/04/13 13:44:22;;;;;;;;;;;34.30;99.90;;;;;;5402328;26;19953;-85
2024/04/13 13:46:48;;;;;;;;;;;34.40;99.90;;;;;;5402272;26;19929;-84
2024/04/13 13:49:13;;;;;;;;;;;34.40;99.90;;;;;;5406426;26;20255;-84
2024/04/13 13:51:39;;;;;;;;;;;34.50;99.90;;;;;;5378241;26;19941;-84
2024/04/13 13:54:05;;;;;;;;;;;34.60;99.90;;;;;;5401866;26;19979;-84
2024/04/13 13:56:30;;;;;;;;;;;34.60;99.90;;;;;;5400506;26;19972;-84
2024/04/13 13:58:56;;;;;;;;;;;34.40;99.90;;;;;;5409821;26;22950;-86
2024/04/13 14:01:21;;;;;;;;;;;34.30;99.90;;;;;;5377367;26;19944;-85
2024/04/13 14:03:47;;;;;;;;;;;34.20;99.90;;;;;;5408614;26;20270;-82
2024/04/13 14:06:14;;;;;;;;;;;34.10;99.90;;;;;;5408181;26;19979;-86
2024/04/13 14:08:40;;;;;;;;;;;33.90;99.90;;;;;;5402143;26;19947;-86
2024/04/13 14:11:06;;;;;;;;;;;33.60;99.90;;;;;;5402310;26;20262;-86
2024/04/13 14:13:31;;;;;;;;;;;33.50;99.90;;;;;;5396499;26;20363;-84